sensor_id;sensor_type;location;lat;lon;timestamp;P1;durP1;ratioP1;P2;durP2;ratioP2
33403;SDS011;19751;40.274;18.268;2023-04-06T00:00:54;6.75;;;1.58;;
33403;SDS011;19751;40.274;18.268;2023-04-06T00:03:20;2.60;;;1.83;;
33403;SDS011;19751;40.274;18.268;2023-04-06T00:05:46;2.42;;;1.90;;
33403;SDS011;19751;40.274;18.268;2023-04-06T00:08:12;2.13;;;1.70;;
33403;SDS011;19751;40.274;18.268;2023-04-06T00:10:38;1.75;;;1.30;;
33403;SDS011;19751;40.274;18.268;2023-04-06T00:13:04;1.80;;;1.38;;
33403;SDS011;19751;40.274;18.268;2023-04-06T00:15:30;3.40;;;1.25;;
33403;SDS011;19751;40.274;18.268;2023-04-06T00:17:56;4.07;;;1.60;;
33403;SDS011;19751;40.274;18.268;2023-04-06T00:20:22;3.80;;;1.50;;
33403;SDS011;19751;40.274;18.268;2023-04-06T00:22:48;7.95;;;2.72;;
33403;SDS011;19751;40.274;18.268;2023-04-06T00:25:14;1.60;;;1.50;;
33403;SDS011;19751;40.274;18.268;2023-04-06T00:27:40;3.50;;;1.70;;
33403;SDS011;19751;40.274;18.268;2023-04-06T00:30:06;2.13;;;1.38;;
33403;SDS011;19751;40.274;18.268;2023-04-06T00:32:32;6.63;;;1.65;;
33403;SDS011;19751;40.274;18.268;2023-04-06T00:34:59;2.67;;;1.30;;
33403;SDS011;19751;40.274;18.268;2023-04-06T00:37:24;3.15;;;1.55;;
33403;SDS011;19751;40.274;18.268;2023-04-06T00:39:50;5.13;;;2.17;;
33403;SDS011;19751;40.274;18.268;2023-04-06T00:42:18;2.83;;;1.30;;
33403;SDS011;19751;40.274;18.268;2023-04-06T00:44:50;2.88;;;1.60;;
33403;SDS011;19751;40.274;18.268;2023-04-06T00:47:20;3.90;;;1.45;;
33403;SDS011;19751;40.274;18.268;2023-04-06T00:49:47;1.25;;;1.10;;
33403;SDS011;19751;40.274;18.268;2023-04-06T00:52:12;1.45;;;1.30;;
33403;SDS011;19751;40.274;18.268;2023-04-06T00:54:38;2.35;;;1.40;;
33403;SDS011;19751;40.274;18.268;2023-04-06T00:57:03;3.22;;;1.58;;
33403;SDS011;19751;40.274;18.268;2023-04-06T00:59:29;1.42;;;1.30;;
33403;SDS011;19751;40.274;18.268;2023-04-06T01:01:55;3.60;;;1.77;;
33403;SDS011;19751;40.274;18.268;2023-04-06T01:04:21;2.38;;;1.55;;
33403;SDS011;19751;40.274;18.268;2023-04-06T01:06:48;1.55;;;1.45;;
33403;SDS011;19751;40.274;18.268;2023-04-06T01:09:14;1.45;;;1.30;;
33403;SDS011;19751;40.274;18.268;2023-04-06T01:11:40;3.15;;;1.48;;
33403;SDS011;19751;40.274;18.268;2023-04-06T01:14:05;2.13;;;1.75;;
33403;SDS011;19751;40.274;18.268;2023-04-06T01:16:31;1.60;;;1.50;;
33403;SDS011;19751;40.274;18.268;2023-04-06T01:18:57;2.97;;;1.88;;
33403;SDS011;19751;40.274;18.268;2023-04-06T01:21:22;5.65;;;2.05;;
33403;SDS011;19751;40.274;18.268;2023-04-06T01:23:48;1.73;;;1.30;;
33403;SDS011;19751;40.274;18.268;2023-04-06T01:26:14;3.80;;;1.90;;
33403;SDS011;19751;40.274;18.268;2023-04-06T01:28:39;2.88;;;1.80;;
33403;SDS011;19751;40.274;18.268;2023-04-06T01:31:08;1.70;;;1.60;;
33403;SDS011;19751;40.274;18.268;2023-04-06T01:33:34;2.25;;;1.45;;
33403;SDS011;19751;40.274;18.268;2023-04-06T01:36:00;4.28;;;1.58;;
33403;SDS011;19751;40.274;18.268;2023-04-06T01:38:26;2.35;;;1.80;;
33403;SDS011;19751;40.274;18.268;2023-04-06T01:40:52;2.13;;;1.90;;
33403;SDS011;19751;40.274;18.268;2023-04-06T01:43:20;3.03;;;2.28;;
33403;SDS011;19751;40.274;18.268;2023-04-06T01:45:47;1.77;;;1.67;;
33403;SDS011;19751;40.274;18.268;2023-04-06T01:48:12;3.63;;;2.10;;
33403;SDS011;19751;40.274;18.268;2023-04-06T01:50:38;2.20;;;2.00;;
33403;SDS011;19751;40.274;18.268;2023-04-06T01:53:03;2.38;;;1.80;;
33403;SDS011;19751;40.274;18.268;2023-04-06T01:55:29;2.10;;;1.88;;
33403;SDS011;19751;40.274;18.268;2023-04-06T01:57:54;2.38;;;2.17;;
33403;SDS011;19751;40.274;18.268;2023-04-06T02:00:20;4.90;;;2.10;;
33403;SDS011;19751;40.274;18.268;2023-04-06T02:02:45;1.85;;;1.60;;
33403;SDS011;19751;40.274;18.268;2023-04-06T02:05:11;2.33;;;2.10;;
33403;SDS011;19751;40.274;18.268;2023-04-06T02:07:37;3.83;;;1.73;;
33403;SDS011;19751;40.274;18.268;2023-04-06T02:10:02;3.17;;;1.70;;
33403;SDS011;19751;40.274;18.268;2023-04-06T02:12:28;2.05;;;1.60;;
33403;SDS011;19751;40.274;18.268;2023-04-06T02:14:54;3.08;;;1.48;;
33403;SDS011;19751;40.274;18.268;2023-04-06T02:17:19;2.40;;;2.10;;
33403;SDS011;19751;40.274;18.268;2023-04-06T02:19:45;4.55;;;2.17;;
33403;SDS011;19751;40.274;18.268;2023-04-06T02:22:11;3.10;;;2.15;;
33403;SDS011;19751;40.274;18.268;2023-04-06T02:24:36;2.85;;;2.13;;
33403;SDS011;19751;40.274;18.268;2023-04-06T02:27:02;2.53;;;2.33;;
33403;SDS011;19751;40.274;18.268;2023-04-06T02:29:27;4.88;;;2.50;;
33403;SDS011;19751;40.274;18.268;2023-04-06T02:31:53;6.07;;;2.63;;
33403;SDS011;19751;40.274;18.268;2023-04-06T02:34:18;2.28;;;2.05;;
33403;SDS011;19751;40.274;18.268;2023-04-06T02:36:44;2.22;;;1.67;;
33403;SDS011;19751;40.274;18.268;2023-04-06T02:39:10;1.77;;;1.67;;
33403;SDS011;19751;40.274;18.268;2023-04-06T02:41:36;2.28;;;1.40;;
33403;SDS011;19751;40.274;18.268;2023-04-06T02:44:02;1.40;;;1.30;;
33403;SDS011;19751;40.274;18.268;2023-04-06T02:46:28;2.08;;;1.90;;
33403;SDS011;19751;40.274;18.268;2023-04-06T02:48:54;2.72;;;1.75;;
33403;SDS011;19751;40.274;18.268;2023-04-06T02:51:19;1.83;;;1.73;;
33403;SDS011;19751;40.274;18.268;2023-04-06T02:53:45;4.35;;;1.85;;
33403;SDS011;19751;40.274;18.268;2023-04-06T02:56:11;2.45;;;2.25;;
33403;SDS011;19751;40.274;18.268;2023-04-06T02:58:36;2.85;;;2.05;;
33403;SDS011;19751;40.274;18.268;2023-04-06T03:01:03;3.92;;;2.75;;
33403;SDS011;19751;40.274;18.268;2023-04-06T03:03:28;3.53;;;2.03;;
33403;SDS011;19751;40.274;18.268;2023-04-06T03:05:55;2.90;;;2.17;;
33403;SDS011;19751;40.274;18.268;2023-04-06T03:08:23;2.70;;;2.45;;
33403;SDS011;19751;40.274;18.268;2023-04-06T03:10:49;5.97;;;2.53;;
33403;SDS011;19751;40.274;18.268;2023-04-06T03:13:15;2.38;;;2.17;;
33403;SDS011;19751;40.274;18.268;2023-04-06T03:15:40;6.47;;;3.85;;
33403;SDS011;19751;40.274;18.268;2023-04-06T03:18:06;2.35;;;2.20;;
33403;SDS011;19751;40.274;18.268;2023-04-06T03:20:31;2.20;;;2.00;;
33403;SDS011;19751;40.274;18.268;2023-04-06T03:22:57;2.55;;;2.20;;
33403;SDS011;19751;40.274;18.268;2023-04-06T03:25:23;3.80;;;2.53;;
33403;SDS011;19751;40.274;18.268;2023-04-06T03:27:48;2.83;;;2.40;;
33403;SDS011;19751;40.274;18.268;2023-04-06T03:30:14;2.28;;;2.08;;
33403;SDS011;19751;40.274;18.268;2023-04-06T03:32:42;8.93;;;3.90;;
33403;SDS011;19751;40.274;18.268;2023-04-06T03:35:10;3.38;;;2.47;;
33403;SDS011;19751;40.274;18.268;2023-04-06T03:37:36;3.25;;;2.28;;
33403;SDS011;19751;40.274;18.268;2023-04-06T03:40:01;3.25;;;2.70;;
33403;SDS011;19751;40.274;18.268;2023-04-06T03:42:28;3.17;;;2.88;;
33403;SDS011;19751;40.274;18.268;2023-04-06T03:44:53;2.83;;;2.53;;
33403;SDS011;19751;40.274;18.268;2023-04-06T03:47:19;6.22;;;2.70;;
33403;SDS011;19751;40.274;18.268;2023-04-06T03:49:45;3.97;;;2.58;;
33403;SDS011;19751;40.274;18.268;2023-04-06T03:52:10;5.10;;;3.03;;
33403;SDS011;19751;40.274;18.268;2023-04-06T03:54:36;2.78;;;2.45;;
33403;SDS011;19751;40.274;18.268;2023-04-06T03:57:02;5.60;;;2.85;;
33403;SDS011;19751;40.274;18.268;2023-04-06T03:59:29;3.58;;;2.95;;
33403;SDS011;19751;40.274;18.268;2023-04-06T04:01:54;5.10;;;4.00;;
33403;SDS011;19751;40.274;18.268;2023-04-06T04:04:20;3.67;;;2.60;;
33403;SDS011;19751;40.274;18.268;2023-04-06T04:06:46;3.63;;;2.80;;
33403;SDS011;19751;40.274;18.268;2023-04-06T04:09:11;3.72;;;3.15;;
33403;SDS011;19751;40.274;18.268;2023-04-06T04:11:37;5.72;;;2.90;;
33403;SDS011;19751;40.274;18.268;2023-04-06T04:14:03;3.72;;;2.92;;
33403;SDS011;19751;40.274;18.268;2023-04-06T04:16:28;4.28;;;2.78;;
33403;SDS011;19751;40.274;18.268;2023-04-06T04:18:54;5.65;;;3.42;;
33403;SDS011;19751;40.274;18.268;2023-04-06T04:21:20;3.92;;;2.85;;
33403;SDS011;19751;40.274;18.268;2023-04-06T04:23:45;3.55;;;3.20;;
33403;SDS011;19751;40.274;18.268;2023-04-06T04:26:11;3.75;;;3.45;;
33403;SDS011;19751;40.274;18.268;2023-04-06T04:28:36;3.15;;;2.83;;
33403;SDS011;19751;40.274;18.268;2023-04-06T04:31:02;6.45;;;3.15;;
33403;SDS011;19751;40.274;18.268;2023-04-06T04:33:27;3.55;;;3.00;;
33403;SDS011;19751;40.274;18.268;2023-04-06T04:35:53;6.32;;;3.17;;
33403;SDS011;19751;40.274;18.268;2023-04-06T04:38:18;3.88;;;3.47;;
33403;SDS011;19751;40.274;18.268;2023-04-06T04:40:43;4.07;;;3.40;;
33403;SDS011;19751;40.274;18.268;2023-04-06T04:43:09;3.30;;;3.00;;
33403;SDS011;19751;40.274;18.268;2023-04-06T04:45:34;4.75;;;3.88;;
33403;SDS011;19751;40.274;18.268;2023-04-06T04:48:00;5.10;;;3.42;;
33403;SDS011;19751;40.274;18.268;2023-04-06T04:50:26;4.68;;;3.45;;
33403;SDS011;19751;40.274;18.268;2023-04-06T04:52:51;3.53;;;3.22;;
33403;SDS011;19751;40.274;18.268;2023-04-06T04:55:16;6.57;;;5.03;;
33403;SDS011;19751;40.274;18.268;2023-04-06T04:57:42;5.70;;;3.83;;
33403;SDS011;19751;40.274;18.268;2023-04-06T05:00:08;4.45;;;3.22;;
33403;SDS011;19751;40.274;18.268;2023-04-06T05:02:34;3.85;;;3.45;;
33403;SDS011;19751;40.274;18.268;2023-04-06T05:05:00;4.40;;;3.53;;
33403;SDS011;19751;40.274;18.268;2023-04-06T05:07:26;6.10;;;3.97;;
33403;SDS011;19751;40.274;18.268;2023-04-06T05:09:51;3.60;;;3.30;;
33403;SDS011;19751;40.274;18.268;2023-04-06T05:12:18;5.13;;;3.72;;
33403;SDS011;19751;40.274;18.268;2023-04-06T05:14:44;4.35;;;3.63;;
33403;SDS011;19751;40.274;18.268;2023-04-06T05:17:10;4.78;;;3.75;;
33403;SDS011;19751;40.274;18.268;2023-04-06T05:19:36;4.47;;;3.78;;
33403;SDS011;19751;40.274;18.268;2023-04-06T05:22:01;4.45;;;3.22;;
33403;SDS011;19751;40.274;18.268;2023-04-06T05:24:27;5.32;;;3.60;;
33403;SDS011;19751;40.274;18.268;2023-04-06T05:26:52;4.10;;;3.70;;
33403;SDS011;19751;40.274;18.268;2023-04-06T05:29:18;4.35;;;3.95;;
33403;SDS011;19751;40.274;18.268;2023-04-06T05:31:43;4.45;;;3.45;;
33403;SDS011;19751;40.274;18.268;2023-04-06T05:34:09;5.53;;;4.03;;
33403;SDS011;19751;40.274;18.268;2023-04-06T05:36:35;3.90;;;3.47;;
33403;SDS011;19751;40.274;18.268;2023-04-06T05:39:01;6.60;;;3.78;;
33403;SDS011;19751;40.274;18.268;2023-04-06T05:41:26;3.88;;;3.47;;
33403;SDS011;19751;40.274;18.268;2023-04-06T05:43:52;5.85;;;3.65;;
33403;SDS011;19751;40.274;18.268;2023-04-06T05:46:17;4.38;;;3.65;;
33403;SDS011;19751;40.274;18.268;2023-04-06T05:48:43;4.97;;;4.05;;
33403;SDS011;19751;40.274;18.268;2023-04-06T05:51:08;3.67;;;3.33;;
33403;SDS011;19751;40.274;18.268;2023-04-06T05:53:34;3.55;;;3.25;;
33403;SDS011;19751;40.274;18.268;2023-04-06T05:56:03;4.45;;;3.80;;
33403;SDS011;19751;40.274;18.268;2023-04-06T05:58:29;4.65;;;4.00;;
33403;SDS011;19751;40.274;18.268;2023-04-06T06:00:58;4.57;;;4.05;;
33403;SDS011;19751;40.274;18.268;2023-04-06T06:03:28;3.65;;;3.33;;
33403;SDS011;19751;40.274;18.268;2023-04-06T06:05:53;4.05;;;3.50;;
33403;SDS011;19751;40.274;18.268;2023-04-06T06:08:19;4.20;;;3.53;;
33403;SDS011;19751;40.274;18.268;2023-04-06T06:10:45;5.25;;;3.67;;
33403;SDS011;19751;40.274;18.268;2023-04-06T06:13:10;4.03;;;3.60;;
33403;SDS011;19751;40.274;18.268;2023-04-06T06:15:36;4.63;;;3.47;;
33403;SDS011;19751;40.274;18.268;2023-04-06T06:18:01;5.45;;;3.53;;
33403;SDS011;19751;40.274;18.268;2023-04-06T06:20:27;6.75;;;3.83;;
33403;SDS011;19751;40.274;18.268;2023-04-06T06:22:52;3.78;;;3.38;;
33403;SDS011;19751;40.274;18.268;2023-04-06T06:25:18;4.50;;;3.67;;
33403;SDS011;19751;40.274;18.268;2023-04-06T06:27:43;4.55;;;4.10;;
33403;SDS011;19751;40.274;18.268;2023-04-06T06:30:09;9.13;;;5.93;;
33403;SDS011;19751;40.274;18.268;2023-04-06T06:32:35;5.30;;;4.07;;
33403;SDS011;19751;40.274;18.268;2023-04-06T06:35:00;5.20;;;4.45;;
33403;SDS011;19751;40.274;18.268;2023-04-06T06:37:26;5.03;;;4.22;;
33403;SDS011;19751;40.274;18.268;2023-04-06T06:39:52;5.80;;;5.07;;
33403;SDS011;19751;40.274;18.268;2023-04-06T06:42:17;5.43;;;4.15;;
33403;SDS011;19751;40.274;18.268;2023-04-06T06:44:43;5.38;;;4.38;;
33403;SDS011;19751;40.274;18.268;2023-04-06T06:47:08;4.72;;;3.85;;
33403;SDS011;19751;40.274;18.268;2023-04-06T06:49:34;6.13;;;4.82;;
33403;SDS011;19751;40.274;18.268;2023-04-06T06:52:00;6.55;;;5.10;;
33403;SDS011;19751;40.274;18.268;2023-04-06T06:54:25;5.40;;;4.90;;
33403;SDS011;19751;40.274;18.268;2023-04-06T06:56:51;7.85;;;5.63;;
33403;SDS011;19751;40.274;18.268;2023-04-06T06:59:16;7.40;;;5.40;;
33403;SDS011;19751;40.274;18.268;2023-04-06T07:01:42;5.85;;;4.75;;
33403;SDS011;19751;40.274;18.268;2023-04-06T07:04:07;10.52;;;5.28;;
33403;SDS011;19751;40.274;18.268;2023-04-06T07:06:35;7.15;;;4.75;;
33403;SDS011;19751;40.274;18.268;2023-04-06T07:09:01;9.02;;;5.82;;
33403;SDS011;19751;40.274;18.268;2023-04-06T07:11:28;11.50;;;6.43;;
33403;SDS011;19751;40.274;18.268;2023-04-06T07:13:54;7.28;;;5.85;;
33403;SDS011;19751;40.274;18.268;2023-04-06T07:16:20;8.95;;;5.28;;
33403;SDS011;19751;40.274;18.268;2023-04-06T07:18:45;5.80;;;4.82;;
33403;SDS011;19751;40.274;18.268;2023-04-06T07:21:11;8.85;;;4.68;;
33403;SDS011;19751;40.274;18.268;2023-04-06T07:23:37;7.22;;;4.15;;
33403;SDS011;19751;40.274;18.268;2023-04-06T07:26:03;6.68;;;5.45;;
33403;SDS011;19751;40.274;18.268;2023-04-06T07:28:28;7.30;;;5.03;;
33403;SDS011;19751;40.274;18.268;2023-04-06T07:30:54;6.03;;;4.95;;
33403;SDS011;19751;40.274;18.268;2023-04-06T07:33:20;7.32;;;4.72;;
33403;SDS011;19751;40.274;18.268;2023-04-06T07:35:46;5.63;;;4.75;;
33403;SDS011;19751;40.274;18.268;2023-04-06T07:38:11;7.72;;;5.10;;
33403;SDS011;19751;40.274;18.268;2023-04-06T07:40:37;5.40;;;4.45;;
33403;SDS011;19751;40.274;18.268;2023-04-06T07:43:02;21.25;;;11.90;;
33403;SDS011;19751;40.274;18.268;2023-04-06T07:45:28;11.80;;;9.07;;
33403;SDS011;19751;40.274;18.268;2023-04-06T07:47:54;11.23;;;7.30;;
33403;SDS011;19751;40.274;18.268;2023-04-06T07:50:20;9.05;;;7.78;;
33403;SDS011;19751;40.274;18.268;2023-04-06T07:52:46;8.60;;;6.45;;
33403;SDS011;19751;40.274;18.268;2023-04-06T07:55:11;7.72;;;6.82;;
33403;SDS011;19751;40.274;18.268;2023-04-06T07:57:37;8.00;;;5.90;;
33403;SDS011;19751;40.274;18.268;2023-04-06T08:00:03;7.38;;;5.13;;
33403;SDS011;19751;40.274;18.268;2023-04-06T08:02:29;5.93;;;5.15;;
33403;SDS011;19751;40.274;18.268;2023-04-06T08:04:56;4.97;;;4.47;;
33403;SDS011;19751;40.274;18.268;2023-04-06T08:07:21;10.52;;;5.78;;
33403;SDS011;19751;40.274;18.268;2023-04-06T08:09:47;7.78;;;5.63;;
33403;SDS011;19751;40.274;18.268;2023-04-06T08:12:13;7.82;;;5.50;;
33403;SDS011;19751;40.274;18.268;2023-04-06T08:14:38;7.20;;;6.03;;
33403;SDS011;19751;40.274;18.268;2023-04-06T08:17:04;5.75;;;5.13;;
33403;SDS011;19751;40.274;18.268;2023-04-06T08:19:30;8.02;;;5.60;;
33403;SDS011;19751;40.274;18.268;2023-04-06T08:21:55;5.63;;;4.90;;
33403;SDS011;19751;40.274;18.268;2023-04-06T08:24:21;6.32;;;5.68;;
33403;SDS011;19751;40.274;18.268;2023-04-06T08:26:46;11.07;;;6.35;;
33403;SDS011;19751;40.274;18.268;2023-04-06T08:29:12;9.18;;;5.93;;
33403;SDS011;19751;40.274;18.268;2023-04-06T08:31:37;10.20;;;5.68;;
33403;SDS011;19751;40.274;18.268;2023-04-06T08:34:03;12.35;;;6.22;;
33403;SDS011;19751;40.274;18.268;2023-04-06T08:36:30;5.65;;;4.85;;
33403;SDS011;19751;40.274;18.268;2023-04-06T08:38:56;5.50;;;4.70;;
33403;SDS011;19751;40.274;18.268;2023-04-06T08:41:21;7.88;;;4.93;;
33403;SDS011;19751;40.274;18.268;2023-04-06T08:43:47;6.65;;;5.88;;
33403;SDS011;19751;40.274;18.268;2023-04-06T08:46:15;8.93;;;6.00;;
33403;SDS011;19751;40.274;18.268;2023-04-06T08:48:41;9.05;;;4.85;;
33403;SDS011;19751;40.274;18.268;2023-04-06T08:51:08;7.28;;;5.30;;
33403;SDS011;19751;40.274;18.268;2023-04-06T08:53:35;5.10;;;4.50;;
33403;SDS011;19751;40.274;18.268;2023-04-06T08:56:01;8.27;;;5.40;;
33403;SDS011;19751;40.274;18.268;2023-04-06T08:58:28;6.38;;;4.75;;
33403;SDS011;19751;40.274;18.268;2023-04-06T09:00:58;8.68;;;5.93;;
33403;SDS011;19751;40.274;18.268;2023-04-06T09:03:26;9.10;;;5.82;;
33403;SDS011;19751;40.274;18.268;2023-04-06T09:05:53;6.10;;;4.88;;
33403;SDS011;19751;40.274;18.268;2023-04-06T09:08:21;7.13;;;5.00;;
33403;SDS011;19751;40.274;18.268;2023-04-06T09:10:47;7.40;;;4.63;;
33403;SDS011;19751;40.274;18.268;2023-04-06T09:13:14;6.65;;;4.55;;
33403;SDS011;19751;40.274;18.268;2023-04-06T09:15:39;5.07;;;4.50;;
33403;SDS011;19751;40.274;18.268;2023-04-06T09:18:05;6.03;;;4.13;;
33403;SDS011;19751;40.274;18.268;2023-04-06T09:20:30;3.53;;;3.22;;
33403;SDS011;19751;40.274;18.268;2023-04-06T09:22:56;4.60;;;3.70;;
33403;SDS011;19751;40.274;18.268;2023-04-06T09:25:22;4.05;;;3.65;;
33403;SDS011;19751;40.274;18.268;2023-04-06T09:28:04;5.40;;;3.65;;
33403;SDS011;19751;40.274;18.268;2023-04-06T09:30:29;8.43;;;3.67;;
33403;SDS011;19751;40.274;18.268;2023-04-06T09:32:56;5.78;;;3.40;;
33403;SDS011;19751;40.274;18.268;2023-04-06T09:35:23;4.38;;;3.35;;
33403;SDS011;19751;40.274;18.268;2023-04-06T09:37:50;8.02;;;3.80;;
33403;SDS011;19751;40.274;18.268;2023-04-06T09:40:17;8.48;;;4.30;;
33403;SDS011;19751;40.274;18.268;2023-04-06T09:42:47;6.28;;;3.85;;
33403;SDS011;19751;40.274;18.268;2023-04-06T09:45:15;4.78;;;3.75;;
33403;SDS011;19751;40.274;18.268;2023-04-06T09:47:44;4.65;;;3.45;;
33403;SDS011;19751;40.274;18.268;2023-04-06T09:50:11;4.80;;;4.00;;
33403;SDS011;19751;40.274;18.268;2023-04-06T09:52:40;4.70;;;3.80;;
33403;SDS011;19751;40.274;18.268;2023-04-06T09:55:08;5.93;;;4.47;;
33403;SDS011;19751;40.274;18.268;2023-04-06T10:00:16;8.07;;;5.35;;
33403;SDS011;19751;40.274;18.268;2023-04-06T10:08:16;6.47;;;5.78;;
33403;SDS011;19751;40.274;18.268;2023-04-06T10:10:44;8.10;;;6.20;;
33403;SDS011;19751;40.274;18.268;2023-04-06T10:13:10;6.75;;;5.40;;
33403;SDS011;19751;40.274;18.268;2023-04-06T10:15:36;7.90;;;5.85;;
33403;SDS011;19751;40.274;18.268;2023-04-06T10:18:03;5.15;;;4.22;;
33403;SDS011;19751;40.274;18.268;2023-04-06T10:20:39;6.22;;;5.05;;
33403;SDS011;19751;40.274;18.268;2023-04-06T10:25:55;9.07;;;6.38;;
33403;SDS011;19751;40.274;18.268;2023-04-06T10:28:22;9.88;;;5.75;;
33403;SDS011;19751;40.274;18.268;2023-04-06T10:30:48;7.50;;;5.55;;
33403;SDS011;19751;40.274;18.268;2023-04-06T10:33:14;7.40;;;5.82;;
33403;SDS011;19751;40.274;18.268;2023-04-06T10:35:41;11.15;;;6.53;;
33403;SDS011;19751;40.274;18.268;2023-04-06T10:38:06;8.38;;;6.57;;
33403;SDS011;19751;40.274;18.268;2023-04-06T10:40:35;8.77;;;6.57;;
33403;SDS011;19751;40.274;18.268;2023-04-06T10:43:07;9.90;;;7.18;;
33403;SDS011;19751;40.274;18.268;2023-04-06T10:45:33;7.38;;;6.28;;
33403;SDS011;19751;40.274;18.268;2023-04-06T10:47:58;9.43;;;6.82;;
33403;SDS011;19751;40.274;18.268;2023-04-06T10:50:24;16.30;;;8.98;;
33403;SDS011;19751;40.274;18.268;2023-04-06T10:52:59;8.57;;;6.80;;
33403;SDS011;19751;40.274;18.268;2023-04-06T10:55:26;8.70;;;6.75;;
33403;SDS011;19751;40.274;18.268;2023-04-06T10:57:53;7.22;;;6.53;;
33403;SDS011;19751;40.274;18.268;2023-04-06T11:00:19;13.18;;;8.80;;
33403;SDS011;19751;40.274;18.268;2023-04-06T11:02:44;10.43;;;7.10;;
33403;SDS011;19751;40.274;18.268;2023-04-06T11:05:11;12.70;;;7.03;;
33403;SDS011;19751;40.274;18.268;2023-04-06T11:07:39;10.38;;;7.10;;
33403;SDS011;19751;40.274;18.268;2023-04-06T11:10:05;13.48;;;7.68;;
33403;SDS011;19751;40.274;18.268;2023-04-06T11:12:31;11.00;;;8.32;;
33403;SDS011;19751;40.274;18.268;2023-04-06T11:15:00;11.98;;;7.78;;
33403;SDS011;19751;40.274;18.268;2023-04-06T11:17:34;8.68;;;6.97;;
33403;SDS011;19751;40.274;18.268;2023-04-06T11:20:03;9.48;;;6.43;;
33403;SDS011;19751;40.274;18.268;2023-04-06T11:22:35;9.27;;;6.78;;
33403;SDS011;19751;40.274;18.268;2023-04-06T11:25:07;11.27;;;6.85;;
33403;SDS011;19751;40.274;18.268;2023-04-06T11:27:33;11.73;;;7.25;;
33403;SDS011;19751;40.274;18.268;2023-04-06T11:30:00;7.35;;;6.28;;
33403;SDS011;19751;40.274;18.268;2023-04-06T11:32:26;10.77;;;6.65;;
33403;SDS011;19751;40.274;18.268;2023-04-06T11:34:52;10.43;;;6.40;;
33403;SDS011;19751;40.274;18.268;2023-04-06T11:37:17;6.57;;;5.95;;
33403;SDS011;19751;40.274;18.268;2023-04-06T11:42:25;9.23;;;5.47;;
33403;SDS011;19751;40.274;18.268;2023-04-06T11:44:57;5.50;;;4.80;;
33403;SDS011;19751;40.274;18.268;2023-04-06T11:47:32;9.00;;;5.90;;
33403;SDS011;19751;40.274;18.268;2023-04-06T11:50:09;7.00;;;5.50;;
33403;SDS011;19751;40.274;18.268;2023-04-06T11:52:36;9.13;;;6.65;;
33403;SDS011;19751;40.274;18.268;2023-04-06T11:55:13;6.55;;;5.03;;
33403;SDS011;19751;40.274;18.268;2023-04-06T11:57:40;8.00;;;4.97;;
33403;SDS011;19751;40.274;18.268;2023-04-06T12:00:07;5.80;;;5.07;;
33403;SDS011;19751;40.274;18.268;2023-04-06T12:02:34;6.70;;;5.20;;
33403;SDS011;19751;40.274;18.268;2023-04-06T12:05:03;7.53;;;4.60;;
33403;SDS011;19751;40.274;18.268;2023-04-06T12:07:30;8.55;;;7.13;;
33403;SDS011;19751;40.274;18.268;2023-04-06T12:09:56;10.85;;;4.90;;
33403;SDS011;19751;40.274;18.268;2023-04-06T12:12:22;8.95;;;5.57;;
33403;SDS011;19751;40.274;18.268;2023-04-06T12:14:48;11.13;;;4.68;;
33403;SDS011;19751;40.274;18.268;2023-04-06T12:17:20;6.13;;;4.72;;
33403;SDS011;19751;40.274;18.268;2023-04-06T12:19:45;5.85;;;4.28;;
33403;SDS011;19751;40.274;18.268;2023-04-06T12:22:11;8.25;;;4.90;;
33403;SDS011;19751;40.274;18.268;2023-04-06T12:24:37;6.13;;;4.82;;
33403;SDS011;19751;40.274;18.268;2023-04-06T12:27:02;6.38;;;4.65;;
33403;SDS011;19751;40.274;18.268;2023-04-06T12:29:28;8.38;;;4.80;;
33403;SDS011;19751;40.274;18.268;2023-04-06T12:31:53;4.90;;;3.90;;
33403;SDS011;19751;40.274;18.268;2023-04-06T12:34:19;7.85;;;4.07;;
33403;SDS011;19751;40.274;18.268;2023-04-06T12:36:45;6.70;;;4.35;;
33403;SDS011;19751;40.274;18.268;2023-04-06T12:39:10;7.88;;;4.65;;
33403;SDS011;19751;40.274;18.268;2023-04-06T12:41:36;7.25;;;4.82;;
33403;SDS011;19751;40.274;18.268;2023-04-06T12:44:02;5.55;;;3.97;;
33403;SDS011;19751;40.274;18.268;2023-04-06T12:46:27;8.48;;;4.40;;
33403;SDS011;19751;40.274;18.268;2023-04-06T12:48:55;11.75;;;4.30;;
33403;SDS011;19751;40.274;18.268;2023-04-06T12:51:21;9.05;;;3.92;;
33403;SDS011;19751;40.274;18.268;2023-04-06T12:53:47;5.00;;;2.95;;
33403;SDS011;19751;40.274;18.268;2023-04-06T12:56:13;3.97;;;2.38;;
33403;SDS011;19751;40.274;18.268;2023-04-06T12:58:50;5.45;;;2.65;;
33403;SDS011;19751;40.274;18.268;2023-04-06T13:01:17;5.38;;;2.58;;
33403;SDS011;19751;40.274;18.268;2023-04-06T13:03:43;6.43;;;2.40;;
33403;SDS011;19751;40.274;18.268;2023-04-06T13:06:08;5.25;;;2.83;;
33403;SDS011;19751;40.274;18.268;2023-04-06T13:08:35;4.75;;;2.60;;
33403;SDS011;19751;40.274;18.268;2023-04-06T13:11:03;3.92;;;2.60;;
33403;SDS011;19751;40.274;18.268;2023-04-06T13:13:30;9.18;;;3.03;;
33403;SDS011;19751;40.274;18.268;2023-04-06T13:16:03;6.78;;;3.03;;
33403;SDS011;19751;40.274;18.268;2023-04-06T13:18:31;5.18;;;2.60;;
33403;SDS011;19751;40.274;18.268;2023-04-06T13:20:57;7.05;;;3.30;;
33403;SDS011;19751;40.274;18.268;2023-04-06T13:23:24;2.63;;;2.13;;
33403;SDS011;19751;40.274;18.268;2023-04-06T13:26:03;12.25;;;3.95;;
33403;SDS011;19751;40.274;18.268;2023-04-06T13:28:30;5.70;;;3.15;;
33403;SDS011;19751;40.274;18.268;2023-04-06T13:30:57;6.97;;;3.33;;
33403;SDS011;19751;40.274;18.268;2023-04-06T13:33:24;6.00;;;3.03;;
33403;SDS011;19751;40.274;18.268;2023-04-06T13:35:50;5.65;;;3.03;;
33403;SDS011;19751;40.274;18.268;2023-04-06T13:38:15;8.60;;;2.83;;
33403;SDS011;19751;40.274;18.268;2023-04-06T13:40:41;7.45;;;2.60;;
33403;SDS011;19751;40.274;18.268;2023-04-06T13:43:07;4.95;;;3.08;;
33403;SDS011;19751;40.274;18.268;2023-04-06T13:45:33;6.93;;;2.55;;
33403;SDS011;19751;40.274;18.268;2023-04-06T13:47:59;3.53;;;2.10;;
33403;SDS011;19751;40.274;18.268;2023-04-06T13:50:27;6.50;;;2.50;;
33403;SDS011;19751;40.274;18.268;2023-04-06T13:52:53;11.45;;;2.92;;
33403;SDS011;19751;40.274;18.268;2023-04-06T13:55:19;3.95;;;2.38;;
33403;SDS011;19751;40.274;18.268;2023-04-06T13:57:44;4.22;;;2.42;;
33403;SDS011;19751;40.274;18.268;2023-04-06T14:00:10;6.65;;;2.35;;
33403;SDS011;19751;40.274;18.268;2023-04-06T14:02:37;4.68;;;2.70;;
33403;SDS011;19751;40.274;18.268;2023-04-06T14:05:03;6.28;;;2.72;;
33403;SDS011;19751;40.274;18.268;2023-04-06T14:07:29;6.03;;;2.67;;
33403;SDS011;19751;40.274;18.268;2023-04-06T14:09:55;7.05;;;4.05;;
33403;SDS011;19751;40.274;18.268;2023-04-06T14:12:20;4.72;;;2.67;;
33403;SDS011;19751;40.274;18.268;2023-04-06T14:14:46;4.13;;;2.70;;
33403;SDS011;19751;40.274;18.268;2023-04-06T14:17:12;7.50;;;2.45;;
33403;SDS011;19751;40.274;18.268;2023-04-06T14:19:37;5.70;;;2.72;;
33403;SDS011;19751;40.274;18.268;2023-04-06T14:22:03;6.18;;;3.38;;
33403;SDS011;19751;40.274;18.268;2023-04-06T14:24:29;7.07;;;3.83;;
33403;SDS011;19751;40.274;18.268;2023-04-06T14:26:55;8.20;;;3.55;;
33403;SDS011;19751;40.274;18.268;2023-04-06T14:29:21;6.18;;;3.80;;
33403;SDS011;19751;40.274;18.268;2023-04-06T14:31:47;7.47;;;3.30;;
33403;SDS011;19751;40.274;18.268;2023-04-06T14:34:13;6.20;;;3.78;;
33403;SDS011;19751;40.274;18.268;2023-04-06T14:36:39;6.22;;;4.30;;
33403;SDS011;19751;40.274;18.268;2023-04-06T14:39:07;8.23;;;4.38;;
33403;SDS011;19751;40.274;18.268;2023-04-06T14:41:34;7.18;;;4.18;;